Time;durP1;ratioP1;P1;durP2;ratioP2;P2;SDS_P1;SDS_P2;PMS_P1;PMS_P2;Temp;Humidity;BMP_temperature;BMP_pressure;BME280_temperature;BME280_humidity;BME280_pressure;Samples;Min_cycle;Max_cycle;Signal;HPM_P1;HPM_P2
2023/10/14 00:00:41;;;;;;;4.05;3.65;;;18.90;1.00;;;;;;5036605;28;20716;-82
2023/10/14 00:03:24;;;;;;;7.57;4.30;;;18.90;99.90;;;;;;5036439;28;20173;-82
2023/10/14 00:05:49;;;;;;;4.65;3.78;;;19.10;1.00;;;;;;5036571;28;20597;-84
2023/10/14 00:08:15;;;;;;;7.63;4.35;;;19.10;1.00;;;;;;5036596;28;20653;-82
2023/10/14 00:10:40;;;;;;;6.00;3.83;;;19.20;1.00;;;;;;5036828;28;20179;-82
2023/10/14 00:13:10;;;;;;;6.65;3.60;;;19.10;99.90;;;;;;5054332;28;20173;-82
2023/10/14 00:15:39;;;;;;;6.47;4.07;;;19.10;99.90;;;;;;5054966;28;20275;-82
2023/10/14 00:18:07;;;;;;;5.32;3.75;;;19.10;1.00;;;;;;5054708;28;20185;-81
2023/10/14 00:20:35;;;;;;;6.43;3.88;;;19.20;99.90;;;;;;5054600;28;20198;-83
2023/10/14 00:23:04;;;;;;;5.80;3.92;;;19.10;1.00;;;;;;5036340;28;20170;-82
2023/10/14 00:25:32;;;;;;;6.90;4.38;;;19.10;1.00;;;;;;5054652;28;20252;-82
2023/10/14 00:27:58;;;;;;;5.80;4.30;;;19.10;99.90;;;;;;5036912;28;20185;-82
2023/10/14 00:30:27;;;;;;;5.80;4.15;;;19.10;1.00;;;;;;5036880;28;20197;-82
2023/10/14 00:32:53;;;;;;;6.10;4.10;;;19.10;1.00;;;;;;5054022;28;20197;-82
2023/10/14 00:35:19;;;;;;;7.75;3.95;;;19.10;1.00;;;;;;5054270;28;20596;-82
2023/10/14 00:37:45;;;;;;;8.15;4.55;;;19.20;1.00;;;;;;5054389;28;20208;-82
2023/10/14 00:40:12;;;;;;;7.50;4.30;;;19.20;99.90;;;;;;5054315;28;20879;-81
2023/10/14 00:42:38;;;;;;;6.07;3.80;;;19.20;99.90;;;;;;5053861;28;20258;-82
2023/10/14 00:45:09;;;;;;;6.70;4.20;;;19.20;99.90;;;;;;5036399;28;20264;-82
2023/10/14 00:47:39;;;;;;;6.82;4.00;;;19.20;62.90;;;;;;5036327;28;20264;-82
2023/10/14 00:50:22;;;;;;;9.88;4.07;;;19.20;1.00;;;;;;5053958;28;20575;-82
2023/10/14 00:52:53;;;;;;;9.88;3.95;;;19.20;1.00;;;;;;5035621;28;20533;-82
2023/10/14 00:55:24;;;;;;;8.82;4.60;;;19.30;99.90;;;;;;5036166;28;20181;-83
2023/10/14 00:57:59;;;;;;;6.53;4.03;;;19.30;71.70;;;;;;5053950;28;20208;-82
2023/10/14 01:00:37;;;;;;;9.07;4.03;;;19.40;1.00;;;;;;5093830;22;20231;-81
2023/10/14 01:03:09;;;;;;;7.40;4.25;;;19.50;1.00;;;;;;5036210;28;20264;-83
2023/10/14 01:05:38;;;;;;;7.30;4.10;;;19.40;1.00;;;;;;5054007;28;20158;-81
2023/10/14 01:08:11;;;;;;;7.93;4.30;;;19.30;39.00;;;;;;5036658;28;20261;-82
2023/10/14 01:10:37;;;;;;;9.70;4.53;;;19.30;1.00;;;;;;5053793;28;20186;-82
2023/10/14 01:13:13;;;;;;;5.38;3.95;;;19.30;1.00;;;;;;5053871;28;20177;-82
2023/10/14 01:15:44;;;;;;;7.57;3.90;;;19.30;1.00;;;;;;5053055;28;20195;-82
2023/10/14 01:18:14;;;;;;;7.35;4.32;;;19.30;1.00;;;;;;5035782;28;20188;-82
2023/10/14 01:20:40;;;;;;;6.63;4.10;;;19.20;1.00;;;;;;5053616;28;20206;-82
2023/10/14 01:23:24;;;;;;;7.60;4.00;;;19.30;1.00;;;;;;5035133;28;20178;-83
2023/10/14 01:25:53;;;;;;;7.82;4.10;;;19.30;1.00;;;;;;5035137;28;20165;-82
2023/10/14 01:28:29;;;;;;;5.50;4.30;;;19.40;99.90;;;;;;5035518;28;20189;-82
2023/10/14 01:33:55;;;;;;;12.27;4.07;;;19.50;99.90;;;;;;5053120;28;20304;-82
2023/10/14 01:36:26;;;;;;;7.95;4.00;;;19.50;99.90;;;;;;5053098;28;20189;-82
2023/10/14 01:38:58;;;;;;;7.93;4.20;;;19.50;90.00;;;;;;5035317;28;20197;-82
2023/10/14 01:41:24;;;;;;;13.48;4.47;;;19.70;99.90;;;;;;5052830;28;20177;-82
2023/10/14 01:43:51;;;;;;;9.68;4.45;;;19.70;1.00;;;;;;5053599;28;20178;-84
2023/10/14 01:46:18;;;;;;;11.13;4.05;;;19.70;99.90;;;;;;5053093;28;20198;-82
2023/10/14 01:48:44;;;;;;;6.45;3.70;;;19.60;1.00;;;;;;5034960;28;20185;-84
2023/10/14 01:51:10;;;;;;;8.13;4.05;;;19.50;1.00;;;;;;5034601;28;20178;-81
2023/10/14 01:53:38;;;;;;;9.55;4.47;;;19.50;1.00;;;;;;5053060;28;20174;-82
2023/10/14 01:56:04;;;;;;;6.82;4.28;;;19.50;1.00;;;;;;5053363;28;20181;-82
2023/10/14 01:58:32;;;;;;;;;;;;;;;;;;;;;
2023/10/14 02:01:07;;;;;;;11.82;4.50;;;19.50;1.00;;;;;;5052236;28;20197;-82
2023/10/14 02:03:34;;;;;;;10.63;4.57;;;19.60;1.00;;;;;;5052480;28;20177;-83
2023/10/14 02:06:10;;;;;;;7.78;4.28;;;19.60;1.00;;;;;;5052724;28;20162;-82
2023/10/14 02:08:36;;;;;;;6.00;4.03;;;19.60;1.00;;;;;;5052666;28;20218;-82
2023/10/14 02:11:02;;;;;;;8.77;4.70;;;19.50;1.00;;;;;;5034104;28;20170;-83
2023/10/14 02:13:28;;;;;;;10.25;4.28;;;19.60;1.00;;;;;;5052246;28;20262;-82
2023/10/14 02:15:59;;;;;;;7.63;4.00;;;19.50;1.00;;;;;;5052423;28;20170;-82
2023/10/14 02:18:25;;;;;;;11.70;4.40;;;19.60;1.00;;;;;;5034452;28;20177;-83
2023/10/14 02:23:44;;;;;;;7.68;4.35;;;19.60;1.00;;;;;;5052714;28;20184;-83
2023/10/14 02:26:33;;;;;;;7.45;4.13;;;19.60;1.00;;;;;;5051943;28;20220;-84
2023/10/14 02:28:59;;;;;;;7.95;4.28;;;19.60;1.00;;;;;;5055649;28;20197;-83
2023/10/14 02:31:29;;;;;;;7.90;4.10;;;19.50;99.90;;;;;;5038196;28;20201;-83
2023/10/14 02:34:06;;;;;;;9.20;4.53;;;19.40;99.90;;;;;;5056410;28;20177;-83
2023/10/14 02:36:36;;;;;;;7.32;4.07;;;19.40;99.90;;;;;;5056386;28;20179;-83
2023/10/14 02:39:12;;;;;;;7.90;4.65;;;19.50;99.90;;;;;;5056173;28;20284;-82
2023/10/14 02:41:40;;;;;;;10.50;5.13;;;19.50;99.90;;;;;;5055827;28;20176;-83
2023/10/14 02:46:45;;;;;;;6.47;3.90;;;19.40;99.90;;;;;;5056358;28;20215;-83
2023/10/14 02:49:14;;;;;;;9.95;4.40;;;19.40;99.90;;;;;;5055933;28;20181;-82
2023/10/14 02:51:44;;;;;;;10.23;4.60;;;19.50;99.90;;;;;;5055724;28;20174;-83
2023/10/14 02:54:54;;;;;;;8.82;4.45;;;19.40;99.90;;;;;;5055955;28;20290;-83
2023/10/14 02:57:13;;;;;;;10.75;4.32;;;19.40;99.90;;;;;;5052462;28;20216;-84
2023/10/14 03:02:14;;;;;;;10.63;5.47;;;19.50;99.90;;;;;;5055350;28;20166;-83
2023/10/14 03:07:28;;;;;;;9.80;4.85;;;19.40;1.00;;;;;;5055549;28;20170;-83
2023/10/14 03:09:58;;;;;;;12.30;4.72;;;19.40;1.00;;;;;;5055390;28;20189;-83
2023/10/14 03:12:24;;;;;;;8.02;5.30;;;19.40;1.00;;;;;;5055130;28;20204;-83
2023/10/14 03:14:52;;;;;;;6.32;4.53;;;19.40;46.00;;;;;;5055434;28;20174;-83
2023/10/14 03:17:25;;;;;;;11.68;5.00;;;19.30;99.90;;;;;;5037616;28;20185;-83
2023/10/14 03:19:54;;;;;;;6.20;4.43;;;19.30;99.90;;;;;;5055285;28;20713;-83
2023/10/14 03:22:23;;;;;;;9.60;5.03;;;19.30;99.90;;;;;;5054662;28;20192;-83
2023/10/14 03:24:50;;;;;;;10.40;5.00;;;19.40;99.90;;;;;;5055758;28;20169;-82
2023/10/14 03:27:18;;;;;;;7.13;4.60;;;19.40;99.90;;;;;;5055574;28;20203;-82
2023/10/14 03:29:45;;;;;;;7.75;4.95;;;19.40;99.90;;;;;;5037349;28;20189;-82
2023/10/14 03:32:11;;;;;;;10.15;5.38;;;19.40;99.90;;;;;;5054622;28;20259;-82
2023/10/14 03:34:41;;;;;;;7.72;4.85;;;19.40;99.90;;;;;;5037252;28;20223;-82
2023/10/14 03:37:21;;;;;;;8.00;4.70;;;19.40;99.90;;;;;;5036953;28;20227;-83
2023/10/14 03:39:54;;;;;;;7.72;4.85;;;19.40;1.00;;;;;;5053637;28;20193;-83
2023/10/14 03:42:22;;;;;;;7.90;5.00;;;19.30;1.00;;;;;;5037019;28;20165;-83
2023/10/14 03:44:47;;;;;;;10.30;4.90;;;19.30;99.90;;;;;;5054942;28;20177;-85
2023/10/14 03:47:16;;;;;;;8.80;5.30;;;19.30;99.90;;;;;;5054777;28;20181;-83
2023/10/14 03:49:43;;;;;;;9.25;4.65;;;19.30;99.90;;;;;;5037010;28;20189;-82
2023/10/14 03:52:11;;;;;;;8.68;4.70;;;19.40;99.90;;;;;;5054273;28;20248;-83
2023/10/14 03:54:43;;;;;;;7.00;4.75;;;19.30;99.90;;;;;;5054355;28;20182;-81
2023/10/14 03:57:33;;;;;;;9.52;4.88;;;19.30;99.90;;;;;;5054852;28;20170;-82
2023/10/14 04:00:08;;;;;;;12.63;4.57;;;19.30;1.00;;;;;;5054199;28;20380;-84
2023/10/14 04:02:35;;;;;;;10.88;4.70;;;19.40;1.00;;;;;;5054350;28;20173;-83
2023/10/14 04:05:02;;;;;;;6.93;4.03;;;19.40;1.00;;;;;;5036958;28;20177;-82
2023/10/14 04:07:28;;;;;;;11.50;4.55;;;19.30;1.00;;;;;;5054689;28;20176;-83
2023/10/14 04:09:58;;;;;;;10.40;4.30;;;19.30;1.00;;;;;;5036480;28;20197;-82
2023/10/14 04:12:33;;;;;;;8.73;4.20;;;19.20;1.00;;;;;;5053645;28;20170;-83
2023/10/14 04:17:40;;;;;;;6.30;3.92;;;19.30;1.00;;;;;;5054897;28;20183;-83
2023/10/14 04:22:38;;;;;;;7.97;4.47;;;19.30;99.90;;;;;;5053850;28;20188;-82
2023/10/14 04:30:21;;;;;;;5.35;3.83;;;19.20;99.90;;;;;;5054023;28;20292;-82
2023/10/14 04:35:23;;;;;;;6.25;4.00;;;19.10;1.00;;;;;;5053868;28;20241;-82
2023/10/14 04:37:53;;;;;;;6.40;3.38;;;19.00;99.90;;;;;;5053994;28;20185;-83
2023/10/14 04:40:36;;;;;;;4.57;3.10;;;18.90;1.00;;;;;;5035852;28;20206;-82
2023/10/14 04:44:00;;;;;;;7.72;3.45;;;18.70;1.00;;;;;;5053325;28;20248;-82
2023/10/14 04:45:57;;;;;;;7.75;3.38;;;18.70;1.00;;;;;;5049575;28;20184;-83
2023/10/14 04:48:28;;;;;;;6.30;3.50;;;18.50;99.90;;;;;;5036192;28;20641;-82
2023/10/14 04:50:58;;;;;;;8.45;3.55;;;18.50;99.90;;;;;;5035060;28;20194;-82
2023/10/14 04:53:27;;;;;;;5.63;2.90;;;18.40;1.00;;;;;;5035938;28;20169;-82
2023/10/14 04:55:53;;;;;;;4.80;2.80;;;18.40;1.00;;;;;;5035647;28;20178;-82
2023/10/14 04:58:31;;;;;;;4.27;2.60;;;18.40;1.00;;;;;;5035611;28;20259;-81
2023/10/14 05:01:00;;;;;;;4.00;2.43;;;18.40;99.90;;;;;;5053393;28;20249;-81
2023/10/14 05:03:30;;;;;;;4.07;2.40;;;18.40;1.00;;;;;;5053766;28;20173;-82
2023/10/14 05:05:56;;;;;;;7.27;2.20;;;18.40;27.90;;;;;;5053401;28;20166;-82
2023/10/14 05:08:24;;;;;;;4.23;2.07;;;18.40;99.90;;;;;;5053635;28;20178;-84
2023/10/14 05:10:51;;;;;;;3.57;1.90;;;18.40;1.00;;;;;;5052982;28;20197;-81
2023/10/14 05:13:31;;;;;;;2.43;1.40;;;18.30;99.90;;;;;;5035593;28;20218;-80
2023/10/14 05:16:20;;;;;;;2.20;1.20;;;18.20;99.90;;;;;;5053680;28;20181;-80
2023/10/14 05:19:06;;;;;;;1.37;1.10;;;18.10;1.00;;;;;;5035619;28;20555;-80
2023/10/14 05:21:43;;;;;;;2.90;1.40;;;17.80;1.00;;;;;;5035158;28;20258;-80
2023/10/14 05:24:10;;;;;;;3.00;1.33;;;17.70;1.00;;;;;;5053345;28;20157;-82
2023/10/14 05:26:52;;;;;;;2.73;1.07;;;17.50;53.10;;;;;;5053350;28;20166;-81
2023/10/14 05:29:18;;;;;;;3.87;1.67;;;17.30;99.90;;;;;;5035261;28;20215;-81
2023/10/14 05:31:44;;;;;;;3.93;1.30;;;17.20;99.90;;;;;;5052461;28;20162;-81
2023/10/14 05:34:10;;;;;;;3.33;1.30;;;17.00;99.90;;;;;;5053146;28;20174;-81
2023/10/14 05:36:36;;;;;;;3.80;1.33;;;17.00;99.90;;;;;;5035548;28;20170;-81
2023/10/14 05:39:03;;;;;;;3.03;1.43;;;16.90;99.90;;;;;;5035170;28;20199;-81
2023/10/14 05:41:30;;;;;;;1.90;1.60;;;16.90;99.90;;;;;;5052338;28;20293;-83
2023/10/14 05:43:55;;;;;;;3.30;1.60;;;16.80;99.90;;;;;;5053325;28;20170;-80
2023/10/14 05:46:21;;;;;;;2.90;1.23;;;16.80;99.90;;;;;;5035155;28;20170;-84
2023/10/14 05:48:46;;;;;;;3.27;1.37;;;16.70;99.90;;;;;;5052980;28;20204;-81
2023/10/14 05:51:15;;;;;;;1.77;1.20;;;16.70;99.90;;;;;;5034819;28;20250;-81
2023/10/14 05:53:42;;;;;;;3.03;1.20;;;16.60;99.90;;;;;;5035055;28;20201;-81
2023/10/14 05:56:14;;;;;;;2.50;1.27;;;16.60;99.90;;;;;;5034812;28;20177;-81
2023/10/14 05:58:43;;;;;;;3.23;1.30;;;16.50;99.90;;;;;;5034801;28;20181;-82
2023/10/14 06:01:09;;;;;;;5.10;1.40;;;16.40;99.90;;;;;;5034726;28;20198;-80
2023/10/14 06:03:36;;;;;;;3.03;1.23;;;16.30;99.90;;;;;;5052114;28;20174;-81
2023/10/14 06:06:02;;;;;;;3.87;1.20;;;16.30;99.90;;;;;;5034833;28;20196;-81
2023/10/14 06:08:31;;;;;;;3.37;1.50;;;16.20;99.90;;;;;;5034921;28;20623;-82
2023/10/14 06:10:58;;;;;;;2.90;1.23;;;16.20;99.90;;;;;;5034053;28;20181;-81
2023/10/14 06:13:23;;;;;;;2.33;1.10;;;16.20;99.90;;;;;;5034829;28;20178;-80
2023/10/14 06:15:49;;;;;;;2.37;1.50;;;16.20;99.90;;;;;;5035076;28;20169;-81
2023/10/14 06:18:15;;;;;;;2.47;1.20;;;16.10;99.90;;;;;;5052930;28;20243;-81
2023/10/14 06:20:45;;;;;;;1.77;1.00;;;16.10;99.90;;;;;;5034627;28;20762;-81
2023/10/14 06:23:11;;;;;;;0.70;0.70;;;16.10;99.90;;;;;;5034373;28;20174;-80
2023/10/14 06:25:38;;;;;;;1.10;0.90;;;16.00;99.90;;;;;;5034746;28;20181;-80
2023/10/14 06:28:04;;;;;;;1.90;0.90;;;16.00;99.90;;;;;;5052837;28;20172;-81
2023/10/14 06:30:30;;;;;;;1.00;0.80;;;15.90;99.90;;;;;;5052496;28;20204;-81
2023/10/14 06:33:05;;;;;;;1.40;0.90;;;15.90;99.90;;;;;;5052450;28;20174;-82
2023/10/14 06:35:35;;;;;;;0.80;0.80;;;16.00;99.90;;;;;;5034637;28;20222;-82
2023/10/14 06:38:03;;;;;;;1.17;0.60;;;15.90;99.90;;;;;;5052509;28;20197;-82
2023/10/14 06:40:35;;;;;;;1.40;0.70;;;15.80;99.90;;;;;;5052441;28;20209;-79
2023/10/14 06:43:06;;;;;;;1.00;0.70;;;15.80;99.90;;;;;;5033379;28;20224;-82
2023/10/14 06:45:32;;;;;;;1.97;0.70;;;15.80;99.90;;;;;;5034425;28;20261;-83
2023/10/14 06:47:58;;;;;;;1.13;0.70;;;15.70;99.90;;;;;;5034044;28;20261;-83
2023/10/14 06:50:24;;;;;;;1.20;0.60;;;15.70;99.90;;;;;;5033908;28;20197;-81
2023/10/14 06:52:53;;;;;;;0.70;0.50;;;15.70;99.90;;;;;;5033551;28;20210;-82
2023/10/14 06:55:21;;;;;;;0.87;0.50;;;15.60;99.90;;;;;;5052314;28;20182;-84
2023/10/14 06:57:51;;;;;;;0.30;0.30;;;15.60;99.90;;;;;;5034395;28;20198;-81
2023/10/14 07:00:25;;;;;;;0.67;0.50;;;15.60;99.90;;;;;;5052246;28;20217;-84
2023/10/14 07:02:53;;;;;;;1.27;0.40;;;15.50;99.90;;;;;;5049136;28;20208;-80
2023/10/14 07:05:20;;;;;;;0.93;0.50;;;15.50;99.90;;;;;;5032279;28;20183;-83
2023/10/14 07:07:52;;;;;;;1.00;0.50;;;15.40;99.90;;;;;;5042946;28;20170;-81
2023/10/14 07:10:19;;;;;;;2.50;0.50;;;15.40;99.90;;;;;;5051470;28;20219;-81
2023/10/14 07:12:44;;;;;;;0.93;0.50;;;15.30;99.90;;;;;;5051923;28;20177;-81
2023/10/14 07:15:12;;;;;;;0.83;0.60;;;15.40;99.90;;;;;;5054631;28;20174;-81
2023/10/14 07:17:42;;;;;;;0.47;0.47;;;15.40;99.90;;;;;;5056403;28;20181;-81
2023/10/14 07:20:11;;;;;;;0.87;0.50;;;15.40;99.90;;;;;;5055902;28;20215;-81
2023/10/14 07:22:42;;;;;;;0.30;0.30;;;15.40;99.90;;;;;;5054460;28;20261;-81
2023/10/14 07:25:09;;;;;;;1.53;0.40;;;15.40;99.90;;;;;;5056079;28;20204;-81
2023/10/14 07:27:35;;;;;;;0.87;0.60;;;15.40;99.90;;;;;;5056208;28;20195;-81
2023/10/14 07:30:26;;;;;;;0.50;0.40;;;15.40;99.90;;;;;;5054606;28;20205;-81
2023/10/14 07:32:49;;;;;;;0.80;0.50;;;15.40;99.90;;;;;;5054907;28;20192;-81
2023/10/14 07:35:16;;;;;;;0.40;0.40;;;15.30;99.90;;;;;;5054432;28;20174;-81
2023/10/14 07:37:48;;;;;;;0.40;0.40;;;15.30;99.90;;;;;;5054652;28;20286;-83
2023/10/14 07:40:23;;;;;;;1.00;0.40;;;15.30;99.90;;;;;;5055733;28;20205;-81
2023/10/14 07:43:05;;;;;;;0.70;0.50;;;15.30;99.90;;;;;;5053810;28;20185;-81
2023/10/14 07:45:33;;;;;;;0.30;0.30;;;15.30;99.90;;;;;;5054797;28;20173;-82
2023/10/14 07:48:08;;;;;;;0.47;0.40;;;15.40;99.90;;;;;;5032755;28;20188;-81
2023/10/14 07:50:34;;;;;;;1.17;0.47;;;15.30;99.90;;;;;;5032308;28;20193;-79
2023/10/14 07:53:12;;;;;;;0.30;0.30;;;15.20;99.90;;;;;;5032438;28;20273;-80
2023/10/14 07:55:47;;;;;;;0.23;0.23;;;15.00;99.90;;;;;;5054963;28;20193;-80
2023/10/14 07:58:15;;;;;;;1.60;0.30;;;14.90;99.90;;;;;;5055506;28;20248;-81
2023/10/14 08:00:52;;;;;;;0.50;0.40;;;14.80;99.90;;;;;;5053091;28;20699;-80
2023/10/14 08:03:20;;;;;;;0.73;0.40;;;14.70;99.90;;;;;;5040439;28;20185;-80
2023/10/14 08:05:52;;;;;;;1.30;0.57;;;14.60;99.90;;;;;;5038757;28;20173;-80
2023/10/14 08:08:19;;;;;;;1.03;0.60;;;14.50;99.90;;;;;;5034469;28;20699;-81
2023/10/14 08:10:47;;;;;;;1.70;0.43;;;14.40;99.90;;;;;;5037784;28;20204;-82
2023/10/14 08:13:13;;;;;;;0.33;0.33;;;14.20;99.90;;;;;;5039042;28;20625;-82
2023/10/14 08:15:42;;;;;;;1.80;0.60;;;14.30;99.90;;;;;;5045054;28;20223;-81
2023/10/14 08:18:08;;;;;;;1.67;0.70;;;14.30;99.90;;;;;;5053262;28;20177;-81
2023/10/14 08:20:35;;;;;;;0.93;0.67;;;14.50;99.90;;;;;;5054368;28;20550;-80
2023/10/14 08:23:02;;;;;;;2.73;1.00;;;14.50;1.00;;;;;;5054265;28;20196;-81
2023/10/14 08:25:30;;;;;;;2.27;1.00;;;14.50;1.00;;;;;;5052670;28;20178;-80
2023/10/14 08:27:57;;;;;;;2.37;1.00;;;14.40;99.90;;;;;;5053239;28;20173;-81
2023/10/14 08:30:24;;;;;;;2.90;0.90;;;14.50;99.90;;;;;;5054366;28;20216;-80
2023/10/14 08:32:52;;;;;;;2.77;1.10;;;14.70;1.00;;;;;;5053617;28;20645;-82
2023/10/14 08:35:19;;;;;;;2.77;1.10;;;14.70;1.00;;;;;;5054267;28;20166;-81
2023/10/14 08:37:52;;;;;;;2.50;1.33;;;14.70;1.00;;;;;;5036299;28;20700;-81
2023/10/14 08:40:20;;;;;;;3.13;1.00;;;14.80;1.00;;;;;;5054389;28;20285;-82
2023/10/14 08:42:58;;;;;;;2.23;1.00;;;14.80;99.90;;;;;;5035982;28;20170;-84
2023/10/14 08:45:28;;;;;;;2.67;1.10;;;14.70;1.00;;;;;;5043046;28;20212;-82
2023/10/14 08:47:58;;;;;;;3.87;1.10;;;14.60;99.90;;;;;;5054494;28;20243;-82
2023/10/14 08:50:24;;;;;;;3.40;1.10;;;14.50;1.00;;;;;;5053032;28;20200;-80
2023/10/14 08:52:53;;;;;;;2.83;0.93;;;14.50;1.00;;;;;;5053256;28;20237;-84
2023/10/14 08:55:20;;;;;;;1.97;1.03;;;14.40;1.00;;;;;;5053938;28;20177;-81
2023/10/14 08:57:47;;;;;;;3.20;1.30;;;14.60;1.00;;;;;;5052683;28;20174;-80
2023/10/14 09:00:19;;;;;;;2.87;1.20;;;14.80;99.90;;;;;;5053886;28;20210;-81
2023/10/14 09:02:46;;;;;;;3.93;1.30;;;15.00;1.00;;;;;;5053598;28;20198;-82
2023/10/14 09:05:16;;;;;;;2.47;0.90;;;15.10;90.20;;;;;;5054108;28;20166;-81
2023/10/14 09:07:51;;;;;;;3.23;1.03;;;14.90;1.00;;;;;;5054154;28;20176;-80
2023/10/14 09:10:21;;;;;;;1.83;1.20;;;14.50;99.90;;;;;;5053382;28;20213;-81
2023/10/14 09:12:58;;;;;;;2.73;1.63;;;14.30;1.00;;;;;;5053389;28;20174;-83
2023/10/14 09:15:28;;;;;;;2.87;1.33;;;14.20;1.00;;;;;;5052604;28;20638;-81
2023/10/14 09:17:55;;;;;;;4.47;1.37;;;14.10;1.00;;;;;;5052532;28;20180;-80
2023/10/14 09:20:35;;;;;;;2.53;1.10;;;14.10;14.80;;;;;;5053177;28;20204;-81
2023/10/14 09:23:16;;;;;;;3.87;1.27;;;14.10;1.00;;;;;;5052847;28;20170;-81
2023/10/14 09:25:52;;;;;;;3.27;1.30;;;14.40;1.00;;;;;;5053647;28;20197;-81
2023/10/14 09:28:20;;;;;;;3.70;1.20;;;14.80;99.90;;;;;;5052160;28;20173;-81
2023/10/14 09:30:53;;;;;;;3.67;1.20;;;15.10;99.90;;;;;;5053205;28;20212;-82
2023/10/14 09:33:27;;;;;;;4.27;1.30;;;15.30;1.00;;;;;;5052918;28;20254;-81
2023/10/14 09:35:59;;;;;;;5.23;1.50;;;15.30;1.00;;;;;;5053025;28;20551;-81
2023/10/14 09:38:27;;;;;;;2.80;1.13;;;15.30;1.00;;;;;;5050993;28;20177;-83
2023/10/14 09:40:57;;;;;;;2.77;1.30;;;14.90;99.90;;;;;;5051549;28;20690;-84
2023/10/14 09:43:27;;;;;;;2.77;1.40;;;14.80;99.90;;;;;;5053063;28;20161;-84
2023/10/14 09:45:57;;;;;;;4.00;1.07;;;14.70;99.90;;;;;;5051610;28;20166;-81
2023/10/14 09:48:25;;;;;;;5.30;1.40;;;14.80;5.30;;;;;;5051839;28;20269;-81
2023/10/14 09:50:54;;;;;;;4.43;1.40;;;15.10;98.50;;;;;;5051372;28;20728;-81
2023/10/14 09:53:26;;;;;;;2.83;1.33;;;15.50;1.00;;;;;;5052974;28;20169;-81
2023/10/14 09:56:12;;;;;;;3.93;1.20;;;15.60;1.00;;;;;;5051664;28;20204;-81
2023/10/14 09:58:41;;;;;;;3.67;1.33;;;15.50;1.00;;;;;;5052087;28;20181;-83
2023/10/14 10:01:11;;;;;;;3.90;1.27;;;15.40;1.00;;;;;;5052514;28;20693;-80
2023/10/14 10:03:44;;;;;;;2.57;1.20;;;15.30;1.00;;;;;;5053043;28;20181;-80
2023/10/14 10:06:27;;;;;;;3.77;1.20;;;15.30;1.00;;;;;;5052712;28;20260;-83
2023/10/14 10:09:10;;;;;;;3.80;1.20;;;15.40;99.90;;;;;;5051774;28;20224;-81
2023/10/14 10:11:37;;;;;;;2.70;1.10;;;15.30;99.90;;;;;;5051017;28;20270;-81
2023/10/14 10:14:12;;;;;;;3.57;1.13;;;15.30;99.90;;;;;;5052644;28;20181;-81
2023/10/14 10:16:41;;;;;;;2.77;1.20;;;15.10;99.90;;;;;;5052743;28;20260;-82
2023/10/14 10:19:08;;;;;;;2.27;1.20;;;15.00;99.90;;;;;;5050907;28;20644;-82
2023/10/14 10:21:40;;;;;;;1.77;1.20;;;15.20;99.90;;;;;;5050866;28;20232;-80
2023/10/14 10:24:24;;;;;;;5.03;1.60;;;15.50;99.90;;;;;;5052748;28;20666;-80
2023/10/14 10:27:05;;;;;;;3.30;1.20;;;15.70;99.90;;;;;;5051595;28;20169;-80
2023/10/14 10:29:34;;;;;;;3.23;1.30;;;15.70;1.00;;;;;;5051256;28;20189;-80
2023/10/14 10:32:07;;;;;;;3.93;1.57;;;15.90;1.00;;;;;;5050943;28;20206;-81
2023/10/14 10:34:33;;;;;;;4.00;1.50;;;16.10;1.00;;;;;;5051135;28;20260;-82
2023/10/14 10:37:02;;;;;;;4.63;1.53;;;15.90;1.00;;;;;;5052616;28;20200;-82
2023/10/14 10:39:32;;;;;;;3.43;1.27;;;16.00;1.00;;;;;;5043500;28;20244;-80
2023/10/14 10:41:59;;;;;;;3.13;1.30;;;16.10;1.00;;;;;;5031231;28;20174;-80
2023/10/14 10:44:25;;;;;;;4.40;1.40;;;16.30;1.00;;;;;;5032698;28;20170;-83
2023/10/14 10:46:55;;;;;;;3.90;1.43;;;16.30;1.00;;;;;;5031771;28;20708;-83
2023/10/14 10:49:48;;;;;;;3.77;1.50;;;16.40;1.00;;;;;;5035035;28;20316;-81
2023/10/14 10:52:14;;;;;;;4.23;1.57;;;16.60;1.00;;;;;;5035726;28;20173;-80
2023/10/14 10:54:44;;;;;;;4.07;1.40;;;16.60;1.00;;;;;;5036483;28;20269;-80
2023/10/14 10:57:13;;;;;;;3.03;1.40;;;16.50;1.00;;;;;;5048799;28;20266;-79
2023/10/14 10:59:40;;;;;;;3.90;1.27;;;16.40;1.00;;;;;;5048103;28;20213;-79
2023/10/14 11:02:11;;;;;;;3.33;1.60;;;16.40;1.00;;;;;;5054930;28;20542;-79
2023/10/14 11:04:39;;;;;;;2.53;1.43;;;16.00;1.00;;;;;;5055893;28;20208;-79
2023/10/14 11:07:11;;;;;;;3.73;1.47;;;15.90;1.00;;;;;;5056679;28;20252;-79
2023/10/14 11:09:39;;;;;;;3.50;1.60;;;15.70;1.00;;;;;;5055221;28;20224;-79
2023/10/14 11:12:09;;;;;;;4.50;1.80;;;15.50;1.00;;;;;;5059415;28;20649;-79
2023/10/14 11:14:35;;;;;;;5.73;1.50;;;15.50;1.00;;;;;;5039183;28;20650;-79
2023/10/14 11:17:00;;;;;;;4.83;1.80;;;15.30;1.00;;;;;;5056766;28;20176;-79
2023/10/14 11:19:30;;;;;;;7.03;1.57;;;15.30;1.00;;;;;;5056661;28;20194;-79
2023/10/14 11:21:58;;;;;;;2.60;1.40;;;15.60;1.00;;;;;;5055901;28;20181;-79
2023/10/14 11:24:24;;;;;;;3.07;1.47;;;16.10;1.00;;;;;;5055267;28;20708;-79
2023/10/14 11:26:50;;;;;;;4.37;1.60;;;16.60;1.00;;;;;;5056316;28;20173;-80
2023/10/14 11:29:16;;;;;;;4.77;1.87;;;16.90;1.00;;;;;;5055385;28;20262;-79
2023/10/14 11:31:45;;;;;;;6.13;1.70;;;17.10;1.00;;;;;;5054685;28;20177;-79
2023/10/14 11:34:12;;;;;;;4.33;1.57;;;17.40;1.00;;;;;;5049687;28;20232;-82
2023/10/14 11:36:44;;;;;;;5.20;1.60;;;17.50;1.00;;;;;;5037960;28;20224;-80
2023/10/14 11:39:13;;;;;;;4.13;1.40;;;17.60;1.00;;;;;;5037847;28;20209;-80
2023/10/14 11:41:40;;;;;;;3.73;1.60;;;17.90;1.00;;;;;;5038043;28;20202;-81
2023/10/14 11:44:06;;;;;;;4.07;1.60;;;17.60;1.00;;;;;;5039945;28;20181;-79
2023/10/14 11:46:38;;;;;;;4.07;1.50;;;17.20;1.00;;;;;;5045631;28;20561;-80
2023/10/14 11:49:09;;;;;;;5.53;1.40;;;16.90;1.00;;;;;;5055885;28;20205;-80
2023/10/14 11:51:37;;;;;;;4.60;1.67;;;17.30;1.00;;;;;;5037455;28;20209;-82
2023/10/14 11:54:03;;;;;;;4.70;1.30;;;17.40;1.00;;;;;;5038023;28;20593;-83
2023/10/14 11:56:28;;;;;;;3.50;1.60;;;17.40;1.00;;;;;;5055670;28;20186;-79
2023/10/14 11:58:54;;;;;;;3.33;1.30;;;16.90;1.00;;;;;;5055624;28;20257;-78
2023/10/14 12:01:32;;;;;;;3.43;1.20;;;16.60;1.00;;;;;;5054160;28;20200;-79
2023/10/14 12:03:59;;;;;;;3.93;1.40;;;16.20;1.00;;;;;;5055762;28;20170;-79
2023/10/14 12:06:25;;;;;;;3.17;1.50;;;16.00;1.00;;;;;;5055653;28;20182;-79
2023/10/14 12:08:53;;;;;;;3.27;1.30;;;16.10;1.00;;;;;;5054268;28;20209;-79
2023/10/14 12:11:19;;;;;;;3.40;1.40;;;16.30;1.00;;;;;;5054826;28;20190;-80
2023/10/14 12:13:44;;;;;;;5.60;1.50;;;16.40;1.00;;;;;;5055238;28;20546;-79
2023/10/14 12:16:11;;;;;;;3.97;1.67;;;16.50;1.00;;;;;;5055368;28;20182;-79
2023/10/14 12:18:37;;;;;;;3.37;1.30;;;16.30;1.00;;;;;;5055328;28;20178;-79
2023/10/14 12:21:05;;;;;;;3.73;1.40;;;16.40;1.00;;;;;;5054735;28;20707;-80
2023/10/14 12:23:31;;;;;;;2.97;1.30;;;16.30;1.00;;;;;;5053809;28;20178;-80
2023/10/14 12:26:01;;;;;;;3.70;1.30;;;16.10;1.00;;;;;;5054914;28;20170;-79
2023/10/14 12:28:32;;;;;;;2.93;1.30;;;16.10;1.00;;;;;;5055192;28;20229;-80
2023/10/14 12:30:59;;;;;;;4.17;1.50;;;16.10;1.00;;;;;;5054681;28;20162;-80
2023/10/14 12:33:31;;;;;;;3.70;1.10;;;16.10;1.00;;;;;;5054782;28;20174;-80
2023/10/14 12:35:58;;;;;;;4.17;1.40;;;16.10;1.00;;;;;;5054294;28;20192;-80
2023/10/14 12:38:26;;;;;;;5.67;1.33;;;16.40;1.00;;;;;;5053727;28;20174;-79
2023/10/14 12:40:53;;;;;;;3.60;1.20;;;16.70;1.00;;;;;;5053141;28;20201;-83
2023/10/14 12:43:28;;;;;;;2.97;1.23;;;17.10;99.90;;;;;;5055143;28;20180;-82
2023/10/14 12:48:59;;;;;;;2.60;1.30;;;17.40;99.90;;;;;;5012746;28;20194;-79
2023/10/14 12:51:30;;;;;;;2.80;1.27;;;17.50;99.90;;;;;;5045551;28;20204;-82
2023/10/14 12:54:00;;;;;;;4.80;1.30;;;17.80;99.90;;;;;;5053345;28;20193;-80
2023/10/14 12:56:26;;;;;;;2.37;1.10;;;17.90;99.90;;;;;;5054830;28;20168;-80
2023/10/14 12:58:53;;;;;;;2.87;1.20;;;17.60;99.90;;;;;;5054416;28;20189;-79
2023/10/14 13:01:22;;;;;;;4.63;1.30;;;17.10;99.90;;;;;;5054497;28;20194;-79
2023/10/14 13:03:53;;;;;;;2.63;1.27;;;16.70;99.90;;;;;;5054926;28;20174;-80
2023/10/14 13:06:23;;;;;;;2.80;1.40;;;16.40;99.90;;;;;;5053598;28;20181;-79
2023/10/14 13:08:53;;;;;;;5.73;1.60;;;16.30;1.00;;;;;;5054259;28;20170;-80
2023/10/14 13:11:19;;;;;;;3.57;1.20;;;16.10;1.00;;;;;;5052406;28;20201;-80
2023/10/14 13:13:52;;;;;;;5.00;1.20;;;15.90;1.00;;;;;;5053120;28;20204;-83
2023/10/14 13:16:22;;;;;;;4.40;1.50;;;16.00;1.00;;;;;;5053852;28;20200;-80
2023/10/14 13:18:49;;;;;;;3.00;1.30;;;16.00;1.00;;;;;;5053302;28;20189;-80
2023/10/14 13:21:19;;;;;;;3.77;1.20;;;15.90;1.00;;;;;;5051841;28;20203;-80
2023/10/14 13:23:48;;;;;;;2.87;1.43;;;15.80;1.00;;;;;;5054135;28;20245;-80
2023/10/14 13:26:15;;;;;;;4.63;1.30;;;15.70;1.00;;;;;;5054027;28;20170;-80
2023/10/14 13:28:45;;;;;;;3.33;1.20;;;15.60;1.00;;;;;;5052489;28;20779;-80
2023/10/14 13:31:15;;;;;;;4.43;1.50;;;15.60;1.00;;;;;;5052496;28;20177;-78
2023/10/14 13:33:41;;;;;;;3.87;1.23;;;16.00;1.00;;;;;;5052562;28;20219;-80
2023/10/14 13:36:10;;;;;;;3.73;1.13;;;16.90;1.00;;;;;;5053757;28;20177;-79